LexMAWeather

Lexington, Massachusetts, USA

22°F
2/17/2019 4:46am 
  • Lexington Conditions: Clear
  • Temperature: 22.3°F / -5.4°CColder 0.9°F than last hour.
  • Dew Point: 12.7°F 
  • Relative Humidity: 66%Increased 2.0% since last hour.
  • Wind: N 2 mph, 10-min avg: 2 mph, gust: 4 mph
  • Barometer: 30.01 in Steady
  • Visibility: 10 miles
  • Snow Today: 0.0 in
  •   
 Southeast Middlesex County - Winter Weather Advisory Winter Weather Advisory
 Middlesex County - Winter Weather Advisory Winter Weather Advisory
 - SEE ALL ALERTS -

Nearby Reports - Official Weather Stations - Current Conditions

Data from the National Weather Service

KBED - Bedford, MA


Distance from station: WNW 4mi, 6km

Updated Sun Feb 17, 2019 3:56am EST

Clear

Clear

Wind from WNW

Wind:

WNW 6 mph , 9 km/h

Temperature: 21°F (-6°C)

Wind Chill: 13°F (-11°C)

Dew Point: 9°F (-13°C)

Humidity: 58%

Barometer: 30.03 in (1016.9 hPa)

Clouds: Clear

Visibility: 10 miles (16 km)


2019/02/17 08:56 KBED 170856Z AUTO 30005KT 10SM CLR M06/M13 A3003 RMK AO2 SLP186 T10611128 51007

KBOS - Boston, MA


Distance from station: ESE 12mi, 20km

Updated Sun Feb 17, 2019 3:54am EST

Clear

Clear

Wind from NW

Wind:

NW 14 mph , 22 km/h

Temperature: 25°F (-4°C)

Wind Chill: 13°F (-11°C)

Dew Point: 9°F (-13°C)

Humidity: 50%

Barometer: 30.04 in (1017.3 hPa)

Clouds: Clear

Visibility: 10 miles (16 km)


2019/02/17 08:54 KBOS 170854Z 31012KT 10SM CLR M04/M13 A3004 RMK AO2 SLP172 T10391128 51012

KOWD - Norwood, MA


Distance from station: SSE 18mi, 29km

Updated Sun Feb 17, 2019 3:53am EST

Clear

Clear

Wind from calm

Wind:

Calm

Temperature: 27°F (-3°C)

Dew Point: 9°F (-13°C)

Humidity: 46%

Barometer: 30.04 in (1017.3 hPa)

Clouds: Clear

Visibility: 10 miles (16 km)


2019/02/17 08:53 KOWD 170853Z AUTO 00000KT 10SM CLR M03/M13 A3004 RMK AO2 SLP174 T10331128 51014

KBVY - Beverly, MA


Distance from station: ENE 19mi, 31km

Updated Sun Feb 17, 2019 3:53am EST

Clear

Clear

Wind from NW

Wind:

NW 10 mph , 17 km/h

Temperature: 23°F (-5°C)

Wind Chill: 13°F (-11°C)

Dew Point: 9°F (-13°C)

Humidity: 54%

Barometer: 30.03 in (1016.9 hPa)

Clouds: Clear

Visibility: 10 miles (16 km)


2019/02/17 08:53 KBVY 170853Z AUTO 32009KT 10SM CLR M05/M13 A3003 RMK AO2 SLP167 T10501128 51009

KLWM - Lawrence, MA


Distance from station: NNE 20mi, 32km

Updated Sun Feb 17, 2019 3:54am EST

Clear

Clear

Wind from WNW

Wind:

WNW 6 mph , 9 km/h

Temperature: 21°F (-6°C)

Wind Chill: 13°F (-11°C)

Dew Point: 9°F (-13°C)

Humidity: 58%

Barometer: 30.06 in (1017.9 hPa)

Clouds: Clear

Visibility: 10 miles (16 km)


2019/02/17 08:54 KLWM 170854Z AUTO 30005KT 10SM CLR M06/M13 A3006 RMK AO2 SLP179 T10611128 51008

KFIT - Fitchburg, MA


Distance from station: WNW 27mi, 44km

Updated Sun Feb 17, 2019 3:52am EST

Clear

Clear

Wind from calm

Wind:

Calm

Temperature: 19°F (-7°C)

Dew Point: 9°F (-13°C)

Humidity: 63%

Barometer: 30.04 in (1017.3 hPa)

Clouds: Clear

Visibility: 10 miles (16 km)


2019/02/17 08:52 KFIT 170852Z AUTO 00000KT 10SM CLR M07/M13 A3004 RMK AO2 SLP176 T10671128 51004

KASH - Nashua/Boire Fld, NH


Distance from station: NNW 28mi, 44km

Updated Sun Feb 17, 2019 3:56am EST

Clear

Clear

Wind from WNW

Wind:

WNW 3 mph , 6 km/h

Temperature: 19°F (-7°C)

Dew Point: 10°F (-12°C)

Humidity: 68%

Barometer: 30.05 in (1017.6 hPa)

Clouds: Clear

Visibility: 10 miles (16 km)


2019/02/17 08:56 KASH 170856Z AUTO 30003KT 10SM CLR M07/M12 A3005 RMK AO2 SLP187 T10721117 51007 FZRANO $

KORH - Worcester, MA


Distance from station: WSW 34mi, 55km

Updated Sun Feb 17, 2019 3:54am EST

Clear

Clear

Wind from NW

Wind:

NW 5 mph , 7 km/h

Temperature: 19°F (-7°C)

Wind Chill: 12°F (-11°C)

Dew Point: 9°F (-13°C)

Humidity: 63%

Barometer: 29.97 in (1014.9 hPa)

Clouds: Clear

Visibility: 10 miles (16 km)


2019/02/17 08:54 KORH 170854Z AUTO 31004KT 10SM CLR M07/M13 A2997 RMK AO2 SLP165 T10721128 50004

KMHT - Manchester, NH


Distance from station: NNW 35mi, 57km

Updated Sun Feb 17, 2019 3:53am EST

Clear

Clear

Wind from WNW

Wind:

WNW 5 mph , 7 km/h

Temperature: 21°F (-6°C)

Wind Chill: 14°F (-10°C)

Dew Point: 9°F (-13°C)

Humidity: 58%

Barometer: 30.03 in (1016.9 hPa)

Clouds: Clear

Visibility: 10 miles (16 km)


2019/02/17 08:53 KMHT 170853Z 29004KT 10SM CLR M06/M13 A3003 RMK AO2 SLP186 T10611133 51007 $

KGHG - Marshfield, MA


Distance from station: SE 38mi, 60km

Updated Sun Feb 17, 2019 4:35am EST

Clear

Clear

Wind from calm

Wind:

Calm

Temperature: 25°F (-4°C)

Dew Point: 12°F (-11°C)

Humidity: 59%

Barometer: 30.04 in (1017.3 hPa)

Clouds: Clear

Visibility: 10 miles (16 km)


2019/02/17 09:35 KGHG 170935Z AUTO 00000KT 10SM CLR M04/M11 A3004 RMK AO2

KSFZ - Pawtucket, RI


Distance from station: SSW 39mi, 62km

Updated Sun Feb 17, 2019 3:56am EST

Clear

Clear

Wind from N

Wind:

N 10 mph , 17 km/h

Temperature: 23°F (-5°C)

Wind Chill: 13°F (-11°C)

Dew Point: 12°F (-11°C)

Humidity: 63%

Barometer: 30.01 in (1016.3 hPa)

Clouds: Clear

Visibility: 10 miles (16 km)


2019/02/17 08:56 KSFZ 170856Z AUTO 36009KT 10SM CLR M05/M11 A3001 RMK AO2 SLP112 T10501111 51008 FZRANO

KTAN - Taunton, MA


Distance from station: SSE 40mi, 65km

Updated Sun Feb 17, 2019 3:52am EST

Clear

Clear

Wind from NNW

Wind:

NNW 6 mph , 9 km/h

Temperature: 27°F (-3°C)

Wind Chill: 20°F (-7°C)

Dew Point: 10°F (-12°C)

Humidity: 50%

Barometer: 30.03 in (1016.9 hPa)

Clouds: Clear

Visibility: 10 miles (16 km)


2019/02/17 08:52 KTAN 170852Z AUTO 33005KT 10SM CLR M03/M12 A3003 RMK AO2 SLP170 T10331122 51016

KPYM - Plymouth, MA


Distance from station: SE 44mi, 72km

Updated Sun Feb 17, 2019 3:52am EST

Clear

Clear

Wind from NW

Wind:

NW 6 mph , 9 km/h

Temperature: 25°F (-4°C)

Wind Chill: 18°F (-8°C)

Dew Point: 12°F (-11°C)

Humidity: 59%

Barometer: 30.03 in (1016.9 hPa)

Clouds: Clear

Visibility: 10 miles (16 km)


2019/02/17 08:52 KPYM 170852Z AUTO 31005KT 10SM CLR M04/M11 A3003 RMK AO2 SLP171 T10391111 51018

KAFN - Jaffrey, NH


Distance from station: WNW 46mi, 74km

Updated Sun Feb 17, 2019 3:52am EST

Clear

Clear

Wind from NNE

Wind:

NNE 6 mph , 9 km/h

Temperature: 18°F (-8°C)

Wind Chill: 10°F (-12°C)

Dew Point: 9°F (-13°C)

Humidity: 68%

Barometer: 29.98 in (1015.2 hPa)

Clouds: Clear

Visibility: 10 miles (16 km)


2019/02/17 08:52 KAFN 170852Z AUTO 03005KT 10SM CLR M08/M13 A2998 RMK AO2 SLP170 T10781133 51003

KPSM - Portsmouth/Pease, NH


Distance from station: NNE 48mi, 78km

Updated Sun Feb 17, 2019 3:56am EST

Clear

Clear

Wind from W

Wind:

W 7 mph , 11 km/h

Temperature: 21°F (-6°C)

Wind Chill: 12°F (-11°C)

Dew Point: 9°F (-13°C)

Humidity: 58%

Barometer: 30.01 in (1016.3 hPa)

Clouds: Clear

Visibility: 10 miles (16 km)


2019/02/17 08:56 KPSM 170856Z 27006KT 10SM CLR M06/M13 A3001 RMK AO2A SLP166 T10611130 50007

KPVD - Providence/Green, RI


Distance from station: S 51mi, 82km

Updated Sun Feb 17, 2019 3:51am EST

Clear

Clear

Wind from N

Wind:

N 12 mph , 19 km/h

Temperature: 27°F (-3°C)

Wind Chill: 16°F (-9°C)

Dew Point: 12°F (-11°C)

Humidity: 54%

Barometer: 30.03 in (1016.9 hPa)

Clouds: Clear

Visibility: 10 miles (16 km)


2019/02/17 08:51 KPVD 170851Z 36010KT 10SM CLR M03/M11 A3003 RMK AO2 SLP169 T10331106 50011

KCON - Concord, NH


Distance from station: NNW 54mi, 87km

Updated Sun Feb 17, 2019 3:51am EST

Clear

Clear

Wind from NW

Wind:

NW 6 mph , 9 km/h

Temperature: 18°F (-8°C)

Wind Chill: 10°F (-12°C)

Dew Point: 9°F (-13°C)

Humidity: 68%

Barometer: 30.03 in (1016.9 hPa)

Clouds: Clear

Visibility: 10 miles (16 km)


2019/02/17 08:51 KCON 170851Z AUTO 31005KT 10SM CLR M08/M13 A3003 RMK AO2 SLP173 T10831133 51007

KEWB - New Bedford, MA


Distance from station: SSE 54mi, 87km

Updated Sun Feb 17, 2019 3:53am EST

Clear

Clear

Wind from N

Wind:

N 5 mph , 7 km/h

Temperature: 27°F (-3°C)

Wind Chill: 21°F (-6°C)

Dew Point: 12°F (-11°C)

Humidity: 54%

Barometer: 30.02 in (1016.6 hPa)

Clouds: Clear

Visibility: 10 miles (16 km)


2019/02/17 08:53 KEWB 170853Z AUTO 35004KT 10SM CLR M03/M11 A3002 RMK AO2 SLP167 T10331111 51015

KMWN - Mount Washington, NH


Distance from station: N 126mi, 203km

Updated Sun Feb 17, 2019 3:52am EST

Partly cloudy

Partly cloudy

Wind from WNW

Wind:

WNW 59 mph , 94 km/h

Temperature: 1°F (-17°C)

Wind Chill: -31°F (-35°C)

Dew Point: -20°F (-29°C)

Humidity: 35%

Clouds: Partly cloudy

Visibility: 120 miles (192 km)

Cloud details: Few Clouds 6000 ft
Partly cloudy 8000 ft


2019/02/17 08:52 KMWN 170852Z 30051KT 120SM SCT/// FEW060 SCT080 M17/M29 RMK TPS LWR SCT040